sensor_id;sensor_type;location;lat;lon;timestamp;P1;durP1;ratioP1;P2;durP2;ratioP2
11113;SDS011;5610;52.154;9.198;2023-02-15T00:02:15;14.55;;;12.43;;
11113;SDS011;5610;52.154;9.198;2023-02-15T00:05:00;13.60;;;12.00;;
11113;SDS011;5610;52.154;9.198;2023-02-15T00:07:47;14.82;;;12.52;;
11113;SDS011;5610;52.154;9.198;2023-02-15T00:10:32;12.88;;;11.20;;
11113;SDS011;5610;52.154;9.198;2023-02-15T00:13:18;12.15;;;10.63;;
11113;SDS011;5610;52.154;9.198;2023-02-15T00:16:03;12.43;;;11.10;;
11113;SDS011;5610;52.154;9.198;2023-02-15T00:18:51;12.63;;;11.32;;
11113;SDS011;5610;52.154;9.198;2023-02-15T00:21:37;10.85;;;9.73;;
11113;SDS011;5610;52.154;9.198;2023-02-15T00:24:24;11.55;;;10.35;;
11113;SDS011;5610;52.154;9.198;2023-02-15T00:27:09;12.65;;;10.82;;
11113;SDS011;5610;52.154;9.198;2023-02-15T00:29:56;11.75;;;10.50;;
11113;SDS011;5610;52.154;9.198;2023-02-15T00:32:42;12.25;;;11.05;;
11113;SDS011;5610;52.154;9.198;2023-02-15T00:35:27;13.18;;;11.77;;
11113;SDS011;5610;52.154;9.198;2023-02-15T00:38:14;11.98;;;10.75;;
11113;SDS011;5610;52.154;9.198;2023-02-15T00:41:02;14.25;;;12.52;;
11113;SDS011;5610;52.154;9.198;2023-02-15T00:43:48;18.05;;;13.20;;
11113;SDS011;5610;52.154;9.198;2023-02-15T00:46:34;11.60;;;10.40;;
11113;SDS011;5610;52.154;9.198;2023-02-15T00:49:20;12.75;;;11.02;;
11113;SDS011;5610;52.154;9.198;2023-02-15T00:52:05;13.23;;;10.68;;
11113;SDS011;5610;52.154;9.198;2023-02-15T00:54:51;12.70;;;11.38;;
11113;SDS011;5610;52.154;9.198;2023-02-15T00:57:37;14.32;;;11.68;;
11113;SDS011;5610;52.154;9.198;2023-02-15T01:00:22;12.40;;;11.10;;
11113;SDS011;5610;52.154;9.198;2023-02-15T01:03:08;11.93;;;10.65;;
11113;SDS011;5610;52.154;9.198;2023-02-15T01:05:54;13.13;;;11.82;;
11113;SDS011;5610;52.154;9.198;2023-02-15T01:08:39;12.18;;;10.77;;
11113;SDS011;5610;52.154;9.198;2023-02-15T01:11:25;12.35;;;10.50;;
11113;SDS011;5610;52.154;9.198;2023-02-15T01:14:12;13.90;;;11.80;;
11113;SDS011;5610;52.154;9.198;2023-02-15T01:16:59;10.98;;;9.88;;
11113;SDS011;5610;52.154;9.198;2023-02-15T01:19:44;12.25;;;10.95;;
11113;SDS011;5610;52.154;9.198;2023-02-15T01:22:30;13.20;;;11.90;;
11113;SDS011;5610;52.154;9.198;2023-02-15T01:25:15;13.40;;;12.00;;
11113;SDS011;5610;52.154;9.198;2023-02-15T01:28:01;14.32;;;11.93;;
11113;SDS011;5610;52.154;9.198;2023-02-15T01:30:48;13.90;;;11.25;;
11113;SDS011;5610;52.154;9.198;2023-02-15T01:33:34;14.77;;;12.23;;
11113;SDS011;5610;52.154;9.198;2023-02-15T01:36:20;13.75;;;12.25;;
11113;SDS011;5610;52.154;9.198;2023-02-15T01:39:05;13.18;;;11.77;;
11113;SDS011;5610;52.154;9.198;2023-02-15T01:41:51;12.43;;;11.13;;
11113;SDS011;5610;52.154;9.198;2023-02-15T01:44:48;11.93;;;10.60;;
11113;SDS011;5610;52.154;9.198;2023-02-15T01:47:38;14.05;;;11.75;;
11113;SDS011;5610;52.154;9.198;2023-02-15T01:50:27;13.50;;;11.57;;
11113;SDS011;5610;52.154;9.198;2023-02-15T01:53:16;14.13;;;12.45;;
11113;SDS011;5610;52.154;9.198;2023-02-15T01:56:05;13.13;;;11.63;;
11113;SDS011;5610;52.154;9.198;2023-02-15T01:58:54;13.30;;;11.90;;
11113;SDS011;5610;52.154;9.198;2023-02-15T02:01:42;12.95;;;11.43;;
11113;SDS011;5610;52.154;9.198;2023-02-15T02:04:31;13.65;;;11.77;;
11113;SDS011;5610;52.154;9.198;2023-02-15T02:07:25;14.48;;;12.05;;
11113;SDS011;5610;52.154;9.198;2023-02-15T02:10:14;13.63;;;12.18;;
11113;SDS011;5610;52.154;9.198;2023-02-15T02:13:03;12.55;;;11.05;;
11113;SDS011;5610;52.154;9.198;2023-02-15T02:15:52;12.77;;;11.40;;
11113;SDS011;5610;52.154;9.198;2023-02-15T02:18:45;13.10;;;11.30;;
11113;SDS011;5610;52.154;9.198;2023-02-15T02:21:51;15.10;;;13.10;;
11113;SDS011;5610;52.154;9.198;2023-02-15T02:25:18;14.90;;;12.65;;
11113;SDS011;5610;52.154;9.198;2023-02-15T02:28:22;18.17;;;12.38;;
11113;SDS011;5610;52.154;9.198;2023-02-15T02:31:37;14.07;;;11.90;;
11113;SDS011;5610;52.154;9.198;2023-02-15T02:34:35;15.15;;;12.10;;
11113;SDS011;5610;52.154;9.198;2023-02-15T02:37:29;15.73;;;14.10;;
11113;SDS011;5610;52.154;9.198;2023-02-15T02:40:23;17.77;;;15.07;;
11113;SDS011;5610;52.154;9.198;2023-02-15T02:43:17;15.82;;;14.20;;
11113;SDS011;5610;52.154;9.198;2023-02-15T02:46:09;19.08;;;16.67;;
11113;SDS011;5610;52.154;9.198;2023-02-15T02:49:03;21.58;;;16.98;;
11113;SDS011;5610;52.154;9.198;2023-02-15T02:51:58;19.83;;;16.35;;
11113;SDS011;5610;52.154;9.198;2023-02-15T02:54:44;18.63;;;16.02;;
11113;SDS011;5610;52.154;9.198;2023-02-15T02:57:29;17.65;;;15.25;;
11113;SDS011;5610;52.154;9.198;2023-02-15T03:00:19;17.17;;;15.38;;
11113;SDS011;5610;52.154;9.198;2023-02-15T03:03:08;19.75;;;15.63;;
11113;SDS011;5610;52.154;9.198;2023-02-15T03:05:59;17.67;;;15.07;;
11113;SDS011;5610;52.154;9.198;2023-02-15T03:08:48;18.60;;;15.35;;
11113;SDS011;5610;52.154;9.198;2023-02-15T03:11:38;17.48;;;15.63;;
11113;SDS011;5610;52.154;9.198;2023-02-15T03:14:23;18.98;;;16.20;;
11113;SDS011;5610;52.154;9.198;2023-02-15T03:17:09;23.90;;;18.02;;
11113;SDS011;5610;52.154;9.198;2023-02-15T03:20:01;24.58;;;18.85;;
11113;SDS011;5610;52.154;9.198;2023-02-15T03:22:52;23.98;;;19.10;;
11113;SDS011;5610;52.154;9.198;2023-02-15T03:25:42;20.05;;;17.83;;
11113;SDS011;5610;52.154;9.198;2023-02-15T03:28:30;24.23;;;19.02;;
11113;SDS011;5610;52.154;9.198;2023-02-15T03:31:20;27.10;;;20.08;;
11113;SDS011;5610;52.154;9.198;2023-02-15T03:34:09;23.92;;;20.08;;
11113;SDS011;5610;52.154;9.198;2023-02-15T03:36:58;23.15;;;19.80;;
11113;SDS011;5610;52.154;9.198;2023-02-15T03:39:51;23.35;;;19.15;;
11113;SDS011;5610;52.154;9.198;2023-02-15T03:42:41;25.20;;;19.83;;
11113;SDS011;5610;52.154;9.198;2023-02-15T03:45:28;22.88;;;19.27;;
11113;SDS011;5610;52.154;9.198;2023-02-15T03:48:16;23.83;;;18.13;;
11113;SDS011;5610;52.154;9.198;2023-02-15T03:51:04;19.85;;;16.58;;
11113;SDS011;5610;52.154;9.198;2023-02-15T03:54:11;21.08;;;17.80;;
11113;SDS011;5610;52.154;9.198;2023-02-15T03:57:23;17.08;;;15.18;;
11113;SDS011;5610;52.154;9.198;2023-02-15T04:00:29;19.75;;;15.95;;
11113;SDS011;5610;52.154;9.198;2023-02-15T04:03:38;19.70;;;17.60;;
11113;SDS011;5610;52.154;9.198;2023-02-15T04:06:26;26.00;;;20.02;;
11113;SDS011;5610;52.154;9.198;2023-02-15T04:09:11;24.05;;;18.95;;
11113;SDS011;5610;52.154;9.198;2023-02-15T04:12:14;20.98;;;18.35;;
11113;SDS011;5610;52.154;9.198;2023-02-15T04:14:59;21.40;;;18.65;;
11113;SDS011;5610;52.154;9.198;2023-02-15T04:18:03;21.42;;;17.30;;
11113;SDS011;5610;52.154;9.198;2023-02-15T04:20:49;23.13;;;18.70;;
11113;SDS011;5610;52.154;9.198;2023-02-15T04:23:52;20.35;;;17.88;;
11113;SDS011;5610;52.154;9.198;2023-02-15T04:26:55;20.20;;;17.33;;
11113;SDS011;5610;52.154;9.198;2023-02-15T04:29:40;21.73;;;19.02;;
11113;SDS011;5610;52.154;9.198;2023-02-15T04:32:25;22.45;;;18.77;;
11113;SDS011;5610;52.154;9.198;2023-02-15T04:35:12;25.60;;;21.65;;
11113;SDS011;5610;52.154;9.198;2023-02-15T04:37:58;26.85;;;22.02;;
11113;SDS011;5610;52.154;9.198;2023-02-15T04:40:43;24.20;;;20.90;;
11113;SDS011;5610;52.154;9.198;2023-02-15T04:43:28;27.45;;;23.25;;
11113;SDS011;5610;52.154;9.198;2023-02-15T04:46:14;29.55;;;22.23;;
11113;SDS011;5610;52.154;9.198;2023-02-15T04:48:59;29.83;;;23.20;;
11113;SDS011;5610;52.154;9.198;2023-02-15T04:51:46;27.52;;;23.58;;
11113;SDS011;5610;52.154;9.198;2023-02-15T04:54:31;25.95;;;20.88;;
11113;SDS011;5610;52.154;9.198;2023-02-15T04:57:16;27.35;;;22.05;;
11113;SDS011;5610;52.154;9.198;2023-02-15T05:00:02;24.83;;;20.80;;
11113;SDS011;5610;52.154;9.198;2023-02-15T05:02:47;27.48;;;21.00;;
11113;SDS011;5610;52.154;9.198;2023-02-15T05:05:33;26.98;;;21.95;;
11113;SDS011;5610;52.154;9.198;2023-02-15T05:08:19;31.95;;;22.45;;
11113;SDS011;5610;52.154;9.198;2023-02-15T05:11:05;27.60;;;22.85;;
11113;SDS011;5610;52.154;9.198;2023-02-15T05:13:50;24.75;;;21.23;;
11113;SDS011;5610;52.154;9.198;2023-02-15T05:16:35;26.15;;;21.50;;
11113;SDS011;5610;52.154;9.198;2023-02-15T05:19:21;24.65;;;21.00;;
11113;SDS011;5610;52.154;9.198;2023-02-15T05:22:08;25.65;;;21.17;;
11113;SDS011;5610;52.154;9.198;2023-02-15T05:24:54;26.02;;;20.35;;
11113;SDS011;5610;52.154;9.198;2023-02-15T05:27:57;24.42;;;20.38;;
11113;SDS011;5610;52.154;9.198;2023-02-15T05:31:06;24.48;;;20.17;;
11113;SDS011;5610;52.154;9.198;2023-02-15T05:33:52;26.55;;;21.40;;
11113;SDS011;5610;52.154;9.198;2023-02-15T05:36:37;25.45;;;21.55;;
11113;SDS011;5610;52.154;9.198;2023-02-15T05:39:23;24.63;;;20.92;;
11113;SDS011;5610;52.154;9.198;2023-02-15T05:42:10;23.88;;;21.10;;
11113;SDS011;5610;52.154;9.198;2023-02-15T05:44:55;24.33;;;21.42;;
11113;SDS011;5610;52.154;9.198;2023-02-15T05:47:40;24.67;;;20.63;;
11113;SDS011;5610;52.154;9.198;2023-02-15T05:50:26;25.10;;;20.58;;
11113;SDS011;5610;52.154;9.198;2023-02-15T05:53:11;24.45;;;21.65;;
11113;SDS011;5610;52.154;9.198;2023-02-15T05:55:56;24.30;;;20.77;;
11113;SDS011;5610;52.154;9.198;2023-02-15T05:58:44;26.08;;;21.00;;
11113;SDS011;5610;52.154;9.198;2023-02-15T06:01:29;27.75;;;21.88;;
11113;SDS011;5610;52.154;9.198;2023-02-15T06:04:15;27.15;;;22.63;;
11113;SDS011;5610;52.154;9.198;2023-02-15T06:07:00;24.95;;;20.70;;
11113;SDS011;5610;52.154;9.198;2023-02-15T06:09:46;28.50;;;22.20;;
11113;SDS011;5610;52.154;9.198;2023-02-15T06:12:31;27.80;;;21.95;;
11113;SDS011;5610;52.154;9.198;2023-02-15T06:15:18;26.70;;;22.25;;
11113;SDS011;5610;52.154;9.198;2023-02-15T06:18:03;26.92;;;22.40;;
11113;SDS011;5610;52.154;9.198;2023-02-15T06:20:48;25.63;;;21.35;;
11113;SDS011;5610;52.154;9.198;2023-02-15T06:23:33;27.25;;;21.48;;
11113;SDS011;5610;52.154;9.198;2023-02-15T06:26:19;24.95;;;20.50;;
11113;SDS011;5610;52.154;9.198;2023-02-15T06:29:04;27.05;;;20.65;;
11113;SDS011;5610;52.154;9.198;2023-02-15T06:31:51;25.25;;;21.33;;
11113;SDS011;5610;52.154;9.198;2023-02-15T06:34:36;25.80;;;21.85;;
11113;SDS011;5610;52.154;9.198;2023-02-15T06:37:21;23.50;;;20.20;;
11113;SDS011;5610;52.154;9.198;2023-02-15T06:40:07;26.08;;;20.90;;
11113;SDS011;5610;52.154;9.198;2023-02-15T06:42:53;22.98;;;18.63;;
11113;SDS011;5610;52.154;9.198;2023-02-15T06:45:39;24.30;;;19.83;;
11113;SDS011;5610;52.154;9.198;2023-02-15T06:48:25;24.27;;;20.13;;
11113;SDS011;5610;52.154;9.198;2023-02-15T06:51:11;25.80;;;20.20;;
11113;SDS011;5610;52.154;9.198;2023-02-15T06:53:56;26.35;;;21.02;;
11113;SDS011;5610;52.154;9.198;2023-02-15T06:56:41;23.42;;;19.70;;
11113;SDS011;5610;52.154;9.198;2023-02-15T06:59:27;21.77;;;18.50;;
11113;SDS011;5610;52.154;9.198;2023-02-15T07:02:13;23.50;;;18.48;;
11113;SDS011;5610;52.154;9.198;2023-02-15T07:05:00;25.77;;;18.58;;
11113;SDS011;5610;52.154;9.198;2023-02-15T07:07:46;20.50;;;17.70;;
11113;SDS011;5610;52.154;9.198;2023-02-15T07:10:31;22.88;;;18.63;;
11113;SDS011;5610;52.154;9.198;2023-02-15T07:13:17;22.05;;;18.70;;
11113;SDS011;5610;52.154;9.198;2023-02-15T07:16:02;24.38;;;18.65;;
11113;SDS011;5610;52.154;9.198;2023-02-15T07:18:47;21.13;;;18.00;;
11113;SDS011;5610;52.154;9.198;2023-02-15T07:21:34;21.38;;;17.65;;
11113;SDS011;5610;52.154;9.198;2023-02-15T07:24:20;20.95;;;18.63;;
11113;SDS011;5610;52.154;9.198;2023-02-15T07:27:06;20.30;;;17.00;;
11113;SDS011;5610;52.154;9.198;2023-02-15T07:29:51;19.10;;;16.55;;
11113;SDS011;5610;52.154;9.198;2023-02-15T07:32:36;19.83;;;17.15;;
11113;SDS011;5610;52.154;9.198;2023-02-15T07:35:46;19.85;;;16.77;;
11113;SDS011;5610;52.154;9.198;2023-02-15T07:38:34;17.40;;;15.27;;
11113;SDS011;5610;52.154;9.198;2023-02-15T07:41:21;19.80;;;16.25;;
11113;SDS011;5610;52.154;9.198;2023-02-15T07:44:10;22.73;;;16.90;;
11113;SDS011;5610;52.154;9.198;2023-02-15T07:46:56;17.98;;;15.77;;
11113;SDS011;5610;52.154;9.198;2023-02-15T07:49:41;19.05;;;15.98;;
11113;SDS011;5610;52.154;9.198;2023-02-15T07:52:26;19.80;;;15.85;;
11113;SDS011;5610;52.154;9.198;2023-02-15T07:55:13;20.48;;;17.10;;
11113;SDS011;5610;52.154;9.198;2023-02-15T07:57:59;19.63;;;16.95;;
11113;SDS011;5610;52.154;9.198;2023-02-15T08:00:44;20.00;;;16.80;;
11113;SDS011;5610;52.154;9.198;2023-02-15T08:03:42;18.30;;;15.80;;
11113;SDS011;5610;52.154;9.198;2023-02-15T08:06:28;19.42;;;16.95;;
11113;SDS011;5610;52.154;9.198;2023-02-15T08:09:14;19.73;;;16.63;;
11113;SDS011;5610;52.154;9.198;2023-02-15T08:12:01;20.95;;;16.83;;
11113;SDS011;5610;52.154;9.198;2023-02-15T08:14:46;20.70;;;17.05;;
11113;SDS011;5610;52.154;9.198;2023-02-15T08:17:35;22.63;;;17.80;;
11113;SDS011;5610;52.154;9.198;2023-02-15T08:20:20;20.45;;;17.00;;
11113;SDS011;5610;52.154;9.198;2023-02-15T08:23:06;17.02;;;14.27;;
11113;SDS011;5610;52.154;9.198;2023-02-15T08:25:51;17.10;;;14.23;;
11113;SDS011;5610;52.154;9.198;2023-02-15T08:28:38;16.60;;;13.90;;
11113;SDS011;5610;52.154;9.198;2023-02-15T08:31:23;16.75;;;14.95;;
11113;SDS011;5610;52.154;9.198;2023-02-15T08:34:09;16.30;;;14.38;;
11113;SDS011;5610;52.154;9.198;2023-02-15T08:36:55;15.15;;;12.95;;
11113;SDS011;5610;52.154;9.198;2023-02-15T08:39:40;16.27;;;14.10;;
11113;SDS011;5610;52.154;9.198;2023-02-15T08:42:27;18.13;;;14.85;;
11113;SDS011;5610;52.154;9.198;2023-02-15T08:45:13;15.60;;;13.85;;
11113;SDS011;5610;52.154;9.198;2023-02-15T08:47:59;17.45;;;14.15;;
11113;SDS011;5610;52.154;9.198;2023-02-15T08:50:44;17.40;;;14.93;;
11113;SDS011;5610;52.154;9.198;2023-02-15T08:53:29;17.25;;;14.60;;
11113;SDS011;5610;52.154;9.198;2023-02-15T08:56:15;17.00;;;14.98;;
11113;SDS011;5610;52.154;9.198;2023-02-15T08:59:01;18.90;;;15.35;;
11113;SDS011;5610;52.154;9.198;2023-02-15T09:01:49;18.75;;;15.25;;
11113;SDS011;5610;52.154;9.198;2023-02-15T09:04:36;19.52;;;15.85;;
11113;SDS011;5610;52.154;9.198;2023-02-15T09:07:21;17.40;;;14.82;;
11113;SDS011;5610;52.154;9.198;2023-02-15T09:10:06;16.35;;;14.52;;
11113;SDS011;5610;52.154;9.198;2023-02-15T09:12:53;19.15;;;14.95;;
11113;SDS011;5610;52.154;9.198;2023-02-15T09:15:38;17.23;;;15.20;;
11113;SDS011;5610;52.154;9.198;2023-02-15T09:18:25;17.48;;;14.63;;
11113;SDS011;5610;52.154;9.198;2023-02-15T09:21:11;16.52;;;14.27;;
11113;SDS011;5610;52.154;9.198;2023-02-15T09:23:58;16.40;;;13.65;;
11113;SDS011;5610;52.154;9.198;2023-02-15T09:26:46;16.97;;;14.67;;
11113;SDS011;5610;52.154;9.198;2023-02-15T09:29:32;15.60;;;13.57;;
11113;SDS011;5610;52.154;9.198;2023-02-15T09:32:18;15.23;;;13.67;;
11113;SDS011;5610;52.154;9.198;2023-02-15T09:35:05;15.33;;;13.43;;
11113;SDS011;5610;52.154;9.198;2023-02-15T09:37:50;16.97;;;14.30;;
11113;SDS011;5610;52.154;9.198;2023-02-15T09:40:37;15.47;;;13.43;;
11113;SDS011;5610;52.154;9.198;2023-02-15T09:43:33;14.70;;;13.10;;
11113;SDS011;5610;52.154;9.198;2023-02-15T09:46:36;16.00;;;14.30;;
11113;SDS011;5610;52.154;9.198;2023-02-15T09:49:37;15.13;;;12.83;;
11113;SDS011;5610;52.154;9.198;2023-02-15T09:52:34;15.23;;;13.53;;
11113;SDS011;5610;52.154;9.198;2023-02-15T09:55:35;14.03;;;12.00;;
11113;SDS011;5610;52.154;9.198;2023-02-15T09:58:33;13.87;;;11.93;;
11113;SDS011;5610;52.154;9.198;2023-02-15T10:01:29;15.47;;;12.83;;
11113;SDS011;5610;52.154;9.198;2023-02-15T10:04:29;14.10;;;12.60;;
11113;SDS011;5610;52.154;9.198;2023-02-15T10:07:29;13.73;;;12.30;;
11113;SDS011;5610;52.154;9.198;2023-02-15T10:10:30;13.20;;;11.73;;
11113;SDS011;5610;52.154;9.198;2023-02-15T10:13:27;13.30;;;11.90;;
11113;SDS011;5610;52.154;9.198;2023-02-15T10:16:24;13.77;;;12.33;;
11113;SDS011;5610;52.154;9.198;2023-02-15T10:19:16;14.07;;;12.17;;
11113;SDS011;5610;52.154;9.198;2023-02-15T10:22:16;12.60;;;11.33;;
11113;SDS011;5610;52.154;9.198;2023-02-15T10:25:18;12.57;;;11.37;;
11113;SDS011;5610;52.154;9.198;2023-02-15T10:28:15;13.17;;;11.87;;
11113;SDS011;5610;52.154;9.198;2023-02-15T10:31:03;13.00;;;11.70;;
11113;SDS011;5610;52.154;9.198;2023-02-15T10:34:11;12.50;;;11.30;;
11113;SDS011;5610;52.154;9.198;2023-02-15T10:37:13;11.67;;;10.60;;
11113;SDS011;5610;52.154;9.198;2023-02-15T10:40:24;12.33;;;11.27;;
11113;SDS011;5610;52.154;9.198;2023-02-15T10:43:20;11.97;;;10.90;;
11113;SDS011;5610;52.154;9.198;2023-02-15T10:46:22;11.80;;;10.80;;
11113;SDS011;5610;52.154;9.198;2023-02-15T10:49:26;11.33;;;10.43;;
11113;SDS011;5610;52.154;9.198;2023-02-15T10:52:24;10.80;;;9.90;;
11113;SDS011;5610;52.154;9.198;2023-02-15T10:55:21;10.80;;;9.90;;
11113;SDS011;5610;52.154;9.198;2023-02-15T10:58:15;11.00;;;10.10;;
11113;SDS011;5610;52.154;9.198;2023-02-15T11:01:11;11.73;;;10.83;;
11113;SDS011;5610;52.154;9.198;2023-02-15T11:04:07;11.40;;;10.50;;
11113;SDS011;5610;52.154;9.198;2023-02-15T11:07:12;10.40;;;9.53;;
11113;SDS011;5610;52.154;9.198;2023-02-15T11:10:04;10.90;;;10.00;;
11113;SDS011;5610;52.154;9.198;2023-02-15T11:13:00;11.50;;;10.60;;
11113;SDS011;5610;52.154;9.198;2023-02-15T11:15:51;11.07;;;10.23;;
11113;SDS011;5610;52.154;9.198;2023-02-15T11:18:40;11.57;;;10.57;;
11113;SDS011;5610;52.154;9.198;2023-02-15T11:21:30;11.03;;;10.23;;
11113;SDS011;5610;52.154;9.198;2023-02-15T11:24:20;11.17;;;10.27;;
11113;SDS011;5610;52.154;9.198;2023-02-15T11:27:12;10.63;;;9.83;;
11113;SDS011;5610;52.154;9.198;2023-02-15T11:30:06;10.00;;;9.20;;
11113;SDS011;5610;52.154;9.198;2023-02-15T11:32:59;10.67;;;9.77;;
11113;SDS011;5610;52.154;9.198;2023-02-15T11:35:48;10.67;;;9.87;;
11113;SDS011;5610;52.154;9.198;2023-02-15T11:38:38;11.10;;;10.20;;
11113;SDS011;5610;52.154;9.198;2023-02-15T11:41:27;9.70;;;9.00;;
11113;SDS011;5610;52.154;9.198;2023-02-15T11:44:17;11.03;;;10.20;;
11113;SDS011;5610;52.154;9.198;2023-02-15T11:47:09;10.47;;;9.67;;
11113;SDS011;5610;52.154;9.198;2023-02-15T11:49:56;10.97;;;10.13;;
11113;SDS011;5610;52.154;9.198;2023-02-15T11:52:42;10.93;;;10.03;;
11113;SDS011;5610;52.154;9.198;2023-02-15T11:55:27;11.47;;;10.57;;
11113;SDS011;5610;52.154;9.198;2023-02-15T11:58:16;10.53;;;9.73;;
11113;SDS011;5610;52.154;9.198;2023-02-15T12:01:13;10.33;;;9.47;;
11113;SDS011;5610;52.154;9.198;2023-02-15T12:04:04;10.00;;;9.20;;
11113;SDS011;5610;52.154;9.198;2023-02-15T12:06:54;9.33;;;8.63;;
11113;SDS011;5610;52.154;9.198;2023-02-15T12:09:45;9.97;;;9.17;;
11113;SDS011;5610;52.154;9.198;2023-02-15T12:12:35;10.63;;;9.83;;
11113;SDS011;5610;52.154;9.198;2023-02-15T12:15:29;11.10;;;10.10;;
11113;SDS011;5610;52.154;9.198;2023-02-15T12:18:17;10.40;;;9.50;;
11113;SDS011;5610;52.154;9.198;2023-02-15T12:21:07;10.30;;;9.50;;
11113;SDS011;5610;52.154;9.198;2023-02-15T12:23:56;10.30;;;9.50;;
11113;SDS011;5610;52.154;9.198;2023-02-15T12:26:45;10.27;;;9.47;;
11113;SDS011;5610;52.154;9.198;2023-02-15T12:29:42;10.10;;;9.20;;
11113;SDS011;5610;52.154;9.198;2023-02-15T12:32:30;10.87;;;9.97;;
11113;SDS011;5610;52.154;9.198;2023-02-15T12:35:21;10.30;;;9.50;;
11113;SDS011;5610;52.154;9.198;2023-02-15T12:38:21;10.57;;;9.67;;
11113;SDS011;5610;52.154;9.198;2023-02-15T12:41:21;10.17;;;9.27;;
11113;SDS011;5610;52.154;9.198;2023-02-15T12:44:15;10.00;;;9.20;;
11113;SDS011;5610;52.154;9.198;2023-02-15T12:47:03;9.37;;;8.67;;
11113;SDS011;5610;52.154;9.198;2023-02-15T12:50:03;10.07;;;9.17;;
11113;SDS011;5610;52.154;9.198;2023-02-15T12:53:05;10.47;;;9.67;;
11113;SDS011;5610;52.154;9.198;2023-02-15T12:55:55;9.50;;;8.80;;
11113;SDS011;5610;52.154;9.198;2023-02-15T12:58:42;11.03;;;10.13;;
11113;SDS011;5610;52.154;9.198;2023-02-15T13:01:29;9.77;;;8.97;;
11113;SDS011;5610;52.154;9.198;2023-02-15T13:04:19;10.00;;;9.27;;
11113;SDS011;5610;52.154;9.198;2023-02-15T13:07:08;11.63;;;10.33;;
11113;SDS011;5610;52.154;9.198;2023-02-15T13:09:56;10.00;;;9.20;;
11113;SDS011;5610;52.154;9.198;2023-02-15T13:12:43;9.47;;;8.77;;
11113;SDS011;5610;52.154;9.198;2023-02-15T13:15:33;10.33;;;9.43;;
11113;SDS011;5610;52.154;9.198;2023-02-15T13:18:23;10.47;;;9.67;;
11113;SDS011;5610;52.154;9.198;2023-02-15T13:21:15;10.57;;;9.73;;
11113;SDS011;5610;52.154;9.198;2023-02-15T13:24:05;11.60;;;10.53;;
11113;SDS011;5610;52.154;9.198;2023-02-15T13:26:57;10.50;;;9.70;;
11113;SDS011;5610;52.154;9.198;2023-02-15T13:29:45;10.40;;;9.50;;
11113;SDS011;5610;52.154;9.198;2023-02-15T13:32:34;11.50;;;10.47;;
11113;SDS011;5610;52.154;9.198;2023-02-15T13:35:24;11.50;;;10.50;;
11113;SDS011;5610;52.154;9.198;2023-02-15T13:38:22;10.90;;;9.90;;
11113;SDS011;5610;52.154;9.198;2023-02-15T13:41:29;11.87;;;10.67;;
11113;SDS011;5610;52.154;9.198;2023-02-15T13:44:19;12.73;;;11.63;;
11113;SDS011;5610;52.154;9.198;2023-02-15T13:47:17;12.23;;;11.17;;
11113;SDS011;5610;52.154;9.198;2023-02-15T13:50:20;11.70;;;10.60;;
11113;SDS011;5610;52.154;9.198;2023-02-15T13:53:25;11.87;;;10.87;;
11113;SDS011;5610;52.154;9.198;2023-02-15T13:56:24;12.53;;;11.43;;
11113;SDS011;5610;52.154;9.198;2023-02-15T13:59:21;11.67;;;10.67;;
11113;SDS011;5610;52.154;9.198;2023-02-15T14:02:36;12.17;;;11.17;;
11113;SDS011;5610;52.154;9.198;2023-02-15T14:08:41;12.07;;;10.90;;
11113;SDS011;5610;52.154;9.198;2023-02-15T14:11:39;12.27;;;11.17;;
11113;SDS011;5610;52.154;9.198;2023-02-15T14:14:36;11.93;;;10.93;;
11113;SDS011;5610;52.154;9.198;2023-02-15T14:17:35;12.63;;;11.53;;
11113;SDS011;5610;52.154;9.198;2023-02-15T14:20:39;12.57;;;11.40;;
11113;SDS011;5610;52.154;9.198;2023-02-15T14:23:38;11.50;;;10.50;;
11113;SDS011;5610;52.154;9.198;2023-02-15T14:26:35;11.83;;;10.73;;
11113;SDS011;5610;52.154;9.198;2023-02-15T14:29:29;12.27;;;11.07;;
11113;SDS011;5610;52.154;9.198;2023-02-15T14:32:31;13.43;;;12.33;;
11113;SDS011;5610;52.154;9.198;2023-02-15T14:35:23;11.53;;;10.53;;
11113;SDS011;5610;52.154;9.198;2023-02-15T14:38:13;12.00;;;10.87;;
11113;SDS011;5610;52.154;9.198;2023-02-15T14:41:07;12.27;;;11.17;;
11113;SDS011;5610;52.154;9.198;2023-02-15T14:43:59;12.70;;;11.63;;
11113;SDS011;5610;52.154;9.198;2023-02-15T14:46:52;13.30;;;12.10;;
11113;SDS011;5610;52.154;9.198;2023-02-15T14:49:41;13.40;;;12.20;;
11113;SDS011;5610;52.154;9.198;2023-02-15T14:52:28;13.77;;;12.47;;
11113;SDS011;5610;52.154;9.198;2023-02-15T14:55:13;12.97;;;11.73;;
11113;SDS011;5610;52.154;9.198;2023-02-15T14:58:21;15.63;;;12.70;;
11113;SDS011;5610;52.154;9.198;2023-02-15T15:01:07;12.13;;;10.90;;
11113;SDS011;5610;52.154;9.198;2023-02-15T15:03:54;12.20;;;11.00;;
11113;SDS011;5610;52.154;9.198;2023-02-15T15:06:42;12.90;;;11.63;;
11113;SDS011;5610;52.154;9.198;2023-02-15T15:09:29;13.90;;;11.83;;
11113;SDS011;5610;52.154;9.198;2023-02-15T15:12:37;13.93;;;12.43;;
11113;SDS011;5610;52.154;9.198;2023-02-15T15:15:34;14.23;;;12.73;;
11113;SDS011;5610;52.154;9.198;2023-02-15T15:21:52;14.53;;;12.93;;
11113;SDS011;5610;52.154;9.198;2023-02-15T15:24:49;14.73;;;12.90;;
11113;SDS011;5610;52.154;9.198;2023-02-15T15:27:40;15.83;;;13.53;;
11113;SDS011;5610;52.154;9.198;2023-02-15T15:37:20;14.27;;;12.77;;
11113;SDS011;5610;52.154;9.198;2023-02-15T15:47:13;16.70;;;13.80;;
11113;SDS011;5610;52.154;9.198;2023-02-15T15:50:11;16.90;;;12.77;;
11113;SDS011;5610;52.154;9.198;2023-02-15T15:52:59;14.10;;;12.70;;
11113;SDS011;5610;52.154;9.198;2023-02-15T15:55:49;17.07;;;14.97;;
11113;SDS011;5610;52.154;9.198;2023-02-15T15:58:40;14.90;;;13.00;;
11113;SDS011;5610;52.154;9.198;2023-02-15T16:01:30;16.13;;;12.50;;
11113;SDS011;5610;52.154;9.198;2023-02-15T16:04:22;15.40;;;12.30;;
11113;SDS011;5610;52.154;9.198;2023-02-15T16:07:18;16.40;;;13.13;;
11113;SDS011;5610;52.154;9.198;2023-02-15T16:10:19;16.00;;;13.30;;
11113;SDS011;5610;52.154;9.198;2023-02-15T16:13:11;16.93;;;12.80;;
11113;SDS011;5610;52.154;9.198;2023-02-15T16:15:58;17.93;;;14.40;;
11113;SDS011;5610;52.154;9.198;2023-02-15T16:18:44;14.97;;;13.33;;
11113;SDS011;5610;52.154;9.198;2023-02-15T16:21:32;16.33;;;13.90;;
11113;SDS011;5610;52.154;9.198;2023-02-15T16:24:24;15.53;;;12.97;;
11113;SDS011;5610;52.154;9.198;2023-02-15T16:30:24;15.70;;;13.00;;
11113;SDS011;5610;52.154;9.198;2023-02-15T16:33:13;16.33;;;14.53;;
11113;SDS011;5610;52.154;9.198;2023-02-15T16:36:00;17.13;;;14.70;;
11113;SDS011;5610;52.154;9.198;2023-02-15T16:42:02;16.13;;;13.83;;
11113;SDS011;5610;52.154;9.198;2023-02-15T16:44:49;18.40;;;15.33;;
11113;SDS011;5610;52.154;9.198;2023-02-15T16:47:41;21.20;;;15.57;;
11113;SDS011;5610;52.154;9.198;2023-02-15T16:50:30;20.43;;;16.20;;
11113;SDS011;5610;52.154;9.198;2023-02-15T16:53:18;15.40;;;13.60;;
11113;SDS011;5610;52.154;9.198;2023-02-15T16:56:07;23.37;;;17.03;;
11113;SDS011;5610;52.154;9.198;2023-02-15T16:58:53;15.33;;;12.30;;
11113;SDS011;5610;52.154;9.198;2023-02-15T17:01:41;15.53;;;13.80;;
11113;SDS011;5610;52.154;9.198;2023-02-15T17:04:31;18.37;;;13.50;;
11113;SDS011;5610;52.154;9.198;2023-02-15T17:07:18;15.83;;;13.43;;
11113;SDS011;5610;52.154;9.198;2023-02-15T17:10:16;17.10;;;12.70;;
11113;SDS011;5610;52.154;9.198;2023-02-15T17:13:11;20.00;;;13.57;;
11113;SDS011;5610;52.154;9.198;2023-02-15T17:16:26;17.60;;;13.77;;
11113;SDS011;5610;52.154;9.198;2023-02-15T17:19:13;17.90;;;14.10;;
11113;SDS011;5610;52.154;9.198;2023-02-15T17:22:01;15.83;;;14.13;;